createdAt,value
2023-05-12T00:01:00.410Z,14
2023-05-12T00:02:00.398Z,14
2023-05-12T00:03:00.529Z,14
2023-05-12T00:04:00.511Z,14
2023-05-12T00:05:00.469Z,14.1
2023-05-12T00:06:00.449Z,14.1
2023-05-12T00:07:00.392Z,14.1
2023-05-12T00:08:00.395Z,14
2023-05-12T00:09:00.394Z,14
2023-05-12T00:10:00.470Z,14
2023-05-12T00:12:00.389Z,14.1
2023-05-12T00:13:00.396Z,14
2023-05-12T00:14:00.510Z,14
2023-05-12T00:15:00.389Z,14.1
2023-05-12T00:16:00.447Z,14.1
2023-05-12T00:17:00.422Z,14.1
2023-05-12T00:18:00.452Z,14.1
2023-05-12T00:19:00.438Z,14.1
2023-05-12T00:20:00.394Z,14.1
2023-05-12T00:21:00.405Z,14
2023-05-12T00:22:00.430Z,14.1
2023-05-12T00:23:00.396Z,14.1
2023-05-12T00:24:00.398Z,14.1
2023-05-12T00:25:00.484Z,14.2
2023-05-12T00:26:00.404Z,14.2
2023-05-12T00:27:00.703Z,14.1
2023-05-12T00:28:00.417Z,14.1
2023-05-12T00:29:00.472Z,14.1
2023-05-12T00:30:00.554Z,14
2023-05-12T00:31:00.393Z,14
2023-05-12T00:32:00.531Z,14
2023-05-12T00:33:00.493Z,14
2023-05-12T00:34:00.400Z,14
2023-05-12T00:35:00.391Z,14.1
2023-05-12T00:36:00.408Z,14.1
2023-05-12T00:37:00.404Z,14.1
2023-05-12T00:38:00.391Z,14.1
2023-05-12T00:39:00.398Z,14
2023-05-12T00:40:00.425Z,14
2023-05-12T00:41:00.408Z,14
2023-05-12T00:42:00.436Z,14
2023-05-12T00:43:00.398Z,14
2023-05-12T00:44:00.419Z,14
2023-05-12T00:45:00.409Z,14
2023-05-12T00:46:00.444Z,14
2023-05-12T00:47:00.390Z,14
2023-05-12T00:48:00.443Z,14
2023-05-12T00:49:00.480Z,14
2023-05-12T00:50:00.423Z,13.9
2023-05-12T00:51:00.402Z,14
2023-05-12T00:52:00.406Z,14
2023-05-12T00:53:00.409Z,14.1
2023-05-12T00:54:00.410Z,14
2023-05-12T00:55:00.413Z,14
2023-05-12T00:56:00.410Z,14
2023-05-12T00:57:00.415Z,14
2023-05-12T00:58:00.433Z,14
2023-05-12T00:59:00.397Z,13.9
2023-05-12T01:01:00.472Z,14
2023-05-12T01:02:00.504Z,14
2023-05-12T01:03:00.563Z,14
2023-05-12T01:04:00.405Z,14
2023-05-12T01:05:00.465Z,13.9
2023-05-12T01:07:00.410Z,13.9
2023-05-12T01:12:10.716Z,13.8
2023-05-12T01:13:10.693Z,13.8
2023-05-12T01:14:00.418Z,13.9
2023-05-12T01:15:00.421Z,13.9
2023-05-12T01:16:00.412Z,13.8
2023-05-12T01:17:00.517Z,13.8
2023-05-12T01:19:00.440Z,13.8
2023-05-12T01:20:00.390Z,13.7
2023-05-12T01:21:00.401Z,13.6
2023-05-12T01:22:00.437Z,13.6
2023-05-12T01:23:00.408Z,13.6
2023-05-12T01:24:00.404Z,13.6
2023-05-12T01:25:00.423Z,13.5
2023-05-12T01:26:00.407Z,13.5
2023-05-12T01:27:00.456Z,13.5
2023-05-12T01:28:00.417Z,13.4
2023-05-12T01:29:00.418Z,13.5
2023-05-12T01:30:00.494Z,13.4
2023-05-12T01:31:00.482Z,13.4
2023-05-12T01:32:00.411Z,13.4
2023-05-12T01:33:00.484Z,13.4
2023-05-12T01:34:00.409Z,13.4
2023-05-12T01:35:00.391Z,13.5
2023-05-12T01:36:00.417Z,13.5
2023-05-12T01:37:00.410Z,13.6
2023-05-12T01:38:00.426Z,13.6
2023-05-12T01:39:00.456Z,13.5
2023-05-12T01:40:00.430Z,13.5
2023-05-12T01:41:00.421Z,13.5
2023-05-12T01:42:00.411Z,13.5
2023-05-12T01:43:00.428Z,13.5
2023-05-12T01:44:00.403Z,13.5
2023-05-12T01:45:00.412Z,13.6
2023-05-12T01:46:00.448Z,13.6
2023-05-12T01:47:00.405Z,13.5
2023-05-12T01:48:00.502Z,13.5
2023-05-12T01:49:00.437Z,13.6
2023-05-12T01:50:00.411Z,13.6
2023-05-12T01:51:00.398Z,13.6
2023-05-12T01:52:00.414Z,13.6
2023-05-12T01:53:00.397Z,13.6
2023-05-12T01:54:00.408Z,13.7
2023-05-12T01:55:00.402Z,13.7
2023-05-12T01:56:00.403Z,13.7
2023-05-12T01:57:00.447Z,13.7
2023-05-12T01:58:00.403Z,13.7
2023-05-12T01:59:00.466Z,13.7
2023-05-12T02:00:00.419Z,13.7
2023-05-12T02:01:00.410Z,13.7
2023-05-12T02:02:00.446Z,13.6
2023-05-12T02:03:00.514Z,13.7
2023-05-12T02:04:00.521Z,13.7
2023-05-12T02:05:00.408Z,13.7
2023-05-12T02:07:00.402Z,13.7
2023-05-12T02:08:00.402Z,13.7
2023-05-12T02:09:00.404Z,13.7
2023-05-12T02:10:00.401Z,13.8
2023-05-12T02:11:00.455Z,13.8
2023-05-12T02:12:00.399Z,13.7
2023-05-12T02:13:00.410Z,13.7
2023-05-12T02:14:00.404Z,13.7
2023-05-12T02:15:00.422Z,13.7
2023-05-12T02:16:00.509Z,13.8
2023-05-12T02:17:00.414Z,13.8
2023-05-12T02:18:00.479Z,13.7
2023-05-12T02:19:00.483Z,13.7
2023-05-12T02:20:00.423Z,13.8
2023-05-12T02:21:00.413Z,13.8
2023-05-12T02:22:00.409Z,13.8
2023-05-12T02:23:00.406Z,13.7
2023-05-12T02:24:00.496Z,13.6
2023-05-12T02:25:00.424Z,13.7
2023-05-12T02:26:00.398Z,13.7
2023-05-12T02:27:00.410Z,13.7
2023-05-12T02:28:00.471Z,13.6
2023-05-12T02:29:00.398Z,13.6
2023-05-12T02:30:00.414Z,13.6
2023-05-12T02:31:00.447Z,13.6
2023-05-12T02:32:00.456Z,13.6
2023-05-12T02:33:00.527Z,13.6
2023-05-12T02:34:00.411Z,13.6
2023-05-12T02:35:00.426Z,13.6
2023-05-12T02:37:00.419Z,13.6
2023-05-12T02:38:00.413Z,13.6
2023-05-12T02:39:00.450Z,13.6
2023-05-12T02:40:00.411Z,13.6
2023-05-12T02:41:00.414Z,13.5
2023-05-12T02:42:00.404Z,13.6
2023-05-12T02:43:00.416Z,13.6
2023-05-12T02:44:00.418Z,13.7
2023-05-12T02:45:00.440Z,13.7
2023-05-12T02:46:00.499Z,13.7
2023-05-12T02:47:00.442Z,13.6
2023-05-12T02:48:00.509Z,13.6
2023-05-12T02:49:00.416Z,13.6
2023-05-12T02:50:00.415Z,13.7
2023-05-12T02:51:00.417Z,13.6
2023-05-12T02:52:00.430Z,13.6
2023-05-12T02:53:00.458Z,13.6
2023-05-12T02:54:00.414Z,13.6
2023-05-12T02:55:00.413Z,13.6
2023-05-12T02:56:00.411Z,13.6
2023-05-12T02:57:00.416Z,13.6
2023-05-12T02:58:00.409Z,13.4
2023-05-12T02:59:00.419Z,13.6
2023-05-12T03:00:00.412Z,13.5
2023-05-12T03:01:10.017Z,13.4
2023-05-12T03:02:00.568Z,13.4
2023-05-12T03:03:00.495Z,13.5
2023-05-12T03:04:00.419Z,13.6
2023-05-12T03:05:00.427Z,13.6
2023-05-12T03:06:00.437Z,13.6
2023-05-12T03:07:00.453Z,13.6
2023-05-12T03:08:00.422Z,13.5
2023-05-12T03:09:00.422Z,13.6
2023-05-12T03:10:00.415Z,13.6
2023-05-12T03:11:00.444Z,13.6
2023-05-12T03:12:00.419Z,13.6
2023-05-12T03:13:00.412Z,13.6
2023-05-12T03:14:00.418Z,13.6
2023-05-12T03:15:00.434Z,13.7
2023-05-12T03:16:00.449Z,13.6
2023-05-12T03:17:00.450Z,13.6
2023-05-12T03:18:00.516Z,13.6
2023-05-12T03:19:00.524Z,13.6
2023-05-12T03:20:00.433Z,13.6
2023-05-12T03:21:00.416Z,13.5
2023-05-12T03:22:00.413Z,13.4
2023-05-12T03:23:00.437Z,13.5
2023-05-12T03:24:00.445Z,13.6
2023-05-12T03:25:00.424Z,13.6
2023-05-12T03:27:00.413Z,13.4
2023-05-12T03:28:00.411Z,13.3
2023-05-12T03:29:00.406Z,13.3
2023-05-12T03:30:00.420Z,13.4
2023-05-12T03:31:00.497Z,13.4
2023-05-12T03:32:00.429Z,13.4
2023-05-12T03:33:00.502Z,13.4
2023-05-12T03:34:00.407Z,13.4
2023-05-12T03:35:00.445Z,13.2
2023-05-12T03:36:00.479Z,13.3
2023-05-12T03:37:00.440Z,13.3
2023-05-12T03:38:00.416Z,13.4
2023-05-12T03:39:00.433Z,13.4
2023-05-12T03:40:00.417Z,13.3
2023-05-12T03:41:00.420Z,13.4
2023-05-12T03:42:00.421Z,13.4
2023-05-12T03:43:00.467Z,13.3
2023-05-12T03:44:00.438Z,13.3
2023-05-12T03:45:00.433Z,13.2
2023-05-12T03:46:00.593Z,13.1
2023-05-12T03:47:00.514Z,13.2
2023-05-12T03:48:00.458Z,13.2
2023-05-12T03:49:00.449Z,13.2
2023-05-12T03:50:00.432Z,13.3
2023-05-12T03:51:00.426Z,13.1
2023-05-12T03:52:00.426Z,13
2023-05-12T03:53:00.424Z,12.9
2023-05-12T03:54:00.430Z,13
2023-05-12T03:55:00.430Z,12.9
2023-05-12T03:56:00.435Z,13
2023-05-12T03:57:00.436Z,13
2023-05-12T03:58:00.453Z,12.9
2023-05-12T03:59:00.454Z,13
2023-05-12T04:00:00.458Z,13.1
2023-05-12T04:01:00.431Z,13
2023-05-12T04:02:00.481Z,12.9
2023-05-12T04:03:00.595Z,13.1
2023-05-12T04:04:00.454Z,13
2023-05-12T04:05:00.452Z,13.1
2023-05-12T04:06:00.418Z,13
2023-05-12T04:07:00.427Z,12.9
2023-05-12T04:08:00.432Z,13
2023-05-12T04:09:00.435Z,13
2023-05-12T04:10:00.438Z,12.9
2023-05-12T04:11:00.434Z,12.9
2023-05-12T04:12:00.427Z,12.9
2023-05-12T04:13:00.429Z,12.9
2023-05-12T04:14:00.456Z,12.9
2023-05-12T04:15:00.441Z,12.9
2023-05-12T04:16:00.468Z,12.9
2023-05-12T04:17:00.513Z,13
2023-05-12T04:18:00.467Z,12.9
2023-05-12T04:19:00.497Z,12.9
2023-05-12T04:20:00.426Z,12.7
2023-05-12T04:21:00.445Z,12.8
2023-05-12T04:22:00.460Z,12.8
2023-05-12T04:23:00.430Z,12.8
2023-05-12T04:24:00.417Z,12.9
2023-05-12T04:25:00.477Z,12.9
2023-05-12T04:26:00.428Z,12.9
2023-05-12T04:27:00.450Z,12.9
2023-05-12T04:28:00.642Z,12.9
2023-05-12T04:29:00.437Z,12.8
2023-05-12T04:30:00.458Z,12.8
2023-05-12T04:31:00.431Z,12.9
2023-05-12T04:32:00.518Z,12.9
2023-05-12T04:33:00.467Z,12.9
2023-05-12T04:34:00.440Z,13
2023-05-12T04:35:00.450Z,12.9
2023-05-12T04:36:00.443Z,12.9
2023-05-12T04:37:00.438Z,12.9
2023-05-12T04:38:00.457Z,12.8
2023-05-12T04:39:00.441Z,12.8
2023-05-12T04:40:00.448Z,12.9
2023-05-12T04:41:00.442Z,13
2023-05-12T04:42:00.536Z,12.9
2023-05-12T04:43:00.430Z,12.9
2023-05-12T04:44:00.889Z,12.8
2023-05-12T04:45:00.482Z,12.8
2023-05-12T04:46:00.663Z,12.9
2023-05-12T04:47:00.437Z,13
2023-05-12T04:48:00.487Z,12.9
2023-05-12T04:49:00.451Z,13
2023-05-12T04:50:00.463Z,13
2023-05-12T04:51:00.435Z,12.9
2023-05-12T04:52:00.429Z,12.9
2023-05-12T04:53:00.444Z,13
2023-05-12T04:54:00.442Z,13
2023-05-12T04:55:00.436Z,12.9
2023-05-12T04:56:00.456Z,12.9
2023-05-12T04:57:00.446Z,12.9
2023-05-12T04:58:00.475Z,12.8
2023-05-12T04:59:00.481Z,12.9
2023-05-12T05:00:00.450Z,12.9
2023-05-12T05:01:00.500Z,12.9
2023-05-12T05:02:00.440Z,12.8
2023-05-12T05:03:00.671Z,12.8
2023-05-12T05:04:00.550Z,12.8
2023-05-12T05:05:00.463Z,12.8
2023-05-12T05:06:00.432Z,12.7
2023-05-12T05:07:00.430Z,12.7
2023-05-12T05:08:00.448Z,12.9
2023-05-12T05:09:00.456Z,12.9
2023-05-12T05:10:00.457Z,12.9
2023-05-12T05:11:00.453Z,12.8
2023-05-12T05:12:00.437Z,12.9
2023-05-12T05:13:00.440Z,12.8
2023-05-12T05:14:00.437Z,12.7
2023-05-12T05:15:00.430Z,12.8
2023-05-12T05:16:00.573Z,12.9
2023-05-12T05:17:00.435Z,12.9
2023-05-12T05:18:01.922Z,12.8
2023-05-12T05:19:02.082Z,12.8
2023-05-12T05:20:00.500Z,12.9
2023-05-12T05:21:00.594Z,12.9
2023-05-12T05:22:00.446Z,12.8
2023-05-12T05:23:00.444Z,12.9
2023-05-12T05:24:00.458Z,12.9
2023-05-12T05:25:00.426Z,13
2023-05-12T05:26:00.461Z,13
2023-05-12T05:27:00.422Z,13
2023-05-12T05:28:00.426Z,13.1
2023-05-12T05:29:00.447Z,13.1
2023-05-12T05:30:00.437Z,13
2023-05-12T05:31:00.447Z,12.9
2023-05-12T05:32:00.431Z,12.9
2023-05-12T05:33:00.561Z,12.9
2023-05-12T05:34:00.469Z,13
2023-05-12T05:35:00.458Z,13.1
2023-05-12T05:37:00.437Z,12.9
2023-05-12T05:38:00.426Z,12.8
2023-05-12T05:39:00.440Z,12.9
2023-05-12T05:40:00.443Z,12.9
2023-05-12T05:41:00.436Z,13
2023-05-12T05:42:00.442Z,13
2023-05-12T05:43:00.432Z,13.1
2023-05-12T05:44:00.484Z,13
2023-05-12T05:45:00.435Z,13
2023-05-12T05:46:00.484Z,13
2023-05-12T05:47:00.485Z,13
2023-05-12T05:49:00.439Z,13
2023-05-12T05:50:00.449Z,13
2023-05-12T05:51:00.431Z,13
2023-05-12T05:52:00.443Z,13.1
2023-05-12T05:53:00.444Z,13.3
2023-05-12T05:54:00.471Z,13.2
2023-05-12T05:55:00.434Z,13.2
2023-05-12T05:56:00.444Z,13.2
2023-05-12T05:57:00.452Z,13.4
2023-05-12T05:58:00.428Z,13.4
2023-05-12T05:59:00.429Z,13.4
2023-05-12T06:00:00.441Z,13.5
2023-05-12T06:01:00.427Z,13.5
2023-05-12T06:02:00.493Z,13.4
2023-05-12T06:03:00.531Z,13.3
2023-05-12T06:04:00.580Z,13.5
2023-05-12T06:05:00.487Z,13.5
2023-05-12T06:06:00.442Z,13.5
2023-05-12T06:07:00.440Z,13.5
2023-05-12T06:08:00.445Z,13.6
2023-05-12T06:09:00.459Z,13.8
2023-05-12T06:10:00.494Z,13.9
2023-05-12T06:11:00.460Z,13.8
2023-05-12T06:12:00.468Z,13.8
2023-05-12T06:13:00.460Z,13.8
2023-05-12T06:14:00.457Z,13.9
2023-05-12T06:15:00.453Z,13.8
2023-05-12T06:16:00.436Z,13.7
2023-05-12T06:17:00.490Z,13.8
2023-05-12T06:18:00.562Z,13.8
2023-05-12T06:19:00.457Z,14
2023-05-12T06:20:00.427Z,14.3
2023-05-12T06:21:00.430Z,14.5
2023-05-12T06:22:00.488Z,14.6
2023-05-12T06:23:00.453Z,14.7
2023-05-12T06:24:00.438Z,14.8
2023-05-12T06:25:00.451Z,14.8
2023-05-12T06:26:00.446Z,14.7
2023-05-12T06:27:00.453Z,14.8
2023-05-12T06:28:00.465Z,14.7
2023-05-12T06:29:00.436Z,14.9
2023-05-12T06:30:00.446Z,14.7
2023-05-12T06:31:00.478Z,14.7
2023-05-12T06:32:00.460Z,14.5
2023-05-12T06:33:00.548Z,14.6
2023-05-12T06:34:00.441Z,14.6
2023-05-12T06:35:00.450Z,14.7
2023-05-12T06:37:00.457Z,14.7
2023-05-12T06:38:00.443Z,14.7
2023-05-12T06:39:00.512Z,14.9
2023-05-12T06:40:00.469Z,15
2023-05-12T06:41:00.435Z,14.9
2023-05-12T06:42:00.454Z,14.9
2023-05-12T06:43:00.447Z,14.8
2023-05-12T06:44:00.454Z,14.7
2023-05-12T06:45:00.458Z,14.6
2023-05-12T06:46:00.472Z,14.7
2023-05-12T06:47:00.441Z,14.8
2023-05-12T06:48:00.491Z,14.9
2023-05-12T06:49:00.453Z,14.8
2023-05-12T06:50:00.456Z,14.9
2023-05-12T06:51:00.452Z,15.1
2023-05-12T06:52:00.457Z,15.1
2023-05-12T06:53:00.436Z,15.1
2023-05-12T06:54:00.450Z,15.2
2023-05-12T06:55:00.462Z,15.2
2023-05-12T06:56:00.486Z,15.2
2023-05-12T06:57:00.466Z,15.3
2023-05-12T06:58:00.481Z,15.1
2023-05-12T06:59:00.441Z,15.1
2023-05-12T07:00:00.487Z,15.1
2023-05-12T07:01:00.523Z,15
2023-05-12T07:02:00.482Z,15.1
2023-05-12T07:03:00.506Z,15.1
2023-05-12T07:04:00.524Z,15.3
2023-05-12T07:05:00.473Z,15.3
2023-05-12T07:06:00.472Z,15.2
2023-05-12T07:07:00.454Z,15.2
2023-05-12T07:08:00.453Z,15.1
2023-05-12T07:09:00.442Z,15
2023-05-12T07:10:00.445Z,14.9
2023-05-12T07:11:00.440Z,15
2023-05-12T07:12:00.456Z,14.8
2023-05-12T07:13:00.509Z,14.8
2023-05-12T07:14:00.460Z,14.8
2023-05-12T07:15:00.469Z,14.8
2023-05-12T07:16:00.535Z,14.8
2023-05-12T07:17:00.449Z,14.8
2023-05-12T07:18:00.497Z,14.8
2023-05-12T07:19:00.549Z,14.8
2023-05-12T07:20:00.449Z,14.8
2023-05-12T07:21:00.455Z,14.9
2023-05-12T07:22:00.452Z,14.9
2023-05-12T07:23:00.553Z,14.9
2023-05-12T07:24:00.459Z,14.9
2023-05-12T07:25:00.502Z,14.9
2023-05-12T07:26:00.448Z,15
2023-05-12T07:27:00.453Z,14.9
2023-05-12T07:28:00.439Z,14.8
2023-05-12T07:29:00.458Z,14.7
2023-05-12T07:30:00.494Z,14.7
2023-05-12T07:31:00.501Z,14.7
2023-05-12T07:32:00.446Z,14.7
2023-05-12T07:33:00.532Z,14.7
2023-05-12T07:34:00.446Z,14.9
2023-05-12T07:35:00.454Z,14.7
2023-05-12T07:36:00.454Z,14.8
2023-05-12T07:37:00.454Z,14.7
2023-05-12T07:38:00.449Z,14.7
2023-05-12T07:39:00.452Z,14.8
2023-05-12T07:40:00.444Z,14.7
2023-05-12T07:41:00.512Z,14.6
2023-05-12T07:42:00.494Z,14.7
2023-05-12T07:43:00.445Z,14.7
2023-05-12T07:44:00.498Z,14.6
2023-05-12T07:45:00.474Z,14.7
2023-05-12T07:46:00.457Z,14.6
2023-05-12T07:47:00.542Z,14.7
2023-05-12T07:49:00.459Z,14.8
2023-05-12T07:50:00.465Z,14.8
2023-05-12T07:51:00.457Z,14.8
2023-05-12T07:52:00.457Z,14.7
2023-05-12T07:53:00.455Z,14.8
2023-05-12T07:54:00.450Z,15
2023-05-12T07:55:00.473Z,14.9
2023-05-12T07:57:00.458Z,15
2023-05-12T07:58:00.483Z,15.1
2023-05-12T07:59:00.449Z,15.2
2023-05-12T08:00:00.462Z,15.4
2023-05-12T08:01:00.482Z,15.5
2023-05-12T08:02:00.508Z,15.5
2023-05-12T08:03:00.748Z,15.5
2023-05-12T08:04:00.630Z,15.5
2023-05-12T08:05:00.450Z,15.6
2023-05-12T08:06:00.462Z,15.7
2023-05-12T08:07:00.451Z,15.5
2023-05-12T08:08:00.459Z,15.7
2023-05-12T08:09:00.451Z,15.7
2023-05-12T08:10:00.468Z,15.8
2023-05-12T08:11:00.461Z,15.6
2023-05-12T08:12:00.451Z,15.6
2023-05-12T08:13:00.450Z,15.6
2023-05-12T08:14:00.460Z,15.6
2023-05-12T08:15:00.449Z,15.6
2023-05-12T08:16:00.458Z,15.8
2023-05-12T08:17:00.580Z,15.7
2023-05-12T08:19:00.561Z,15.8
2023-05-12T08:20:00.495Z,15.8
2023-05-12T08:21:00.499Z,15.7
2023-05-12T08:22:00.453Z,15.7
2023-05-12T08:23:00.456Z,15.8
2023-05-12T08:24:00.462Z,16
2023-05-12T08:25:00.460Z,16
2023-05-12T08:26:00.501Z,16
2023-05-12T08:27:00.463Z,16.2
2023-05-12T08:28:00.469Z,16.2
2023-05-12T08:29:00.467Z,16.2
2023-05-12T08:30:00.497Z,16.2
2023-05-12T08:31:02.678Z,16.3
2023-05-12T08:32:00.458Z,16.1
2023-05-12T08:33:00.501Z,15.8
2023-05-12T08:34:09.855Z,15.8
2023-05-12T08:35:00.490Z,15.6
2023-05-12T08:37:00.455Z,15.7
2023-05-12T08:38:00.457Z,15.8
2023-05-12T08:39:00.459Z,15.8
2023-05-12T08:40:00.471Z,15.9
2023-05-12T08:41:00.449Z,15.9
2023-05-12T08:42:00.457Z,15.9
2023-05-12T08:43:01.861Z,16
2023-05-12T08:44:00.464Z,16
2023-05-12T08:45:00.489Z,16.1
2023-05-12T08:46:00.519Z,16.1
2023-05-12T08:47:00.527Z,16
2023-05-12T08:48:00.618Z,16.2
2023-05-12T08:49:00.469Z,16.3
2023-05-12T08:50:00.460Z,16
2023-05-12T08:51:00.471Z,16.1
2023-05-12T08:52:00.461Z,16.2
2023-05-12T08:53:00.470Z,16.2
2023-05-12T08:54:00.466Z,16.3
2023-05-12T08:55:01.036Z,16.6
2023-05-12T08:58:00.466Z,17
2023-05-12T08:59:00.476Z,17.1
2023-05-12T09:00:00.467Z,17.2
2023-05-12T09:01:00.503Z,17
2023-05-12T09:02:00.516Z,17.2
2023-05-12T09:03:00.538Z,17.2
2023-05-12T09:04:00.653Z,17.5
2023-05-12T09:05:00.650Z,17.7
2023-05-12T09:07:00.474Z,17.3
2023-05-12T09:08:00.485Z,17.3
2023-05-12T09:09:00.476Z,17.3
2023-05-12T09:10:00.478Z,17.5
2023-05-12T09:11:00.458Z,17.5
2023-05-12T09:12:00.502Z,17.6
2023-05-12T09:13:00.458Z,17.9
2023-05-12T09:14:00.493Z,18
2023-05-12T09:15:00.475Z,18.2
2023-05-12T09:16:00.514Z,18.2
2023-05-12T09:17:00.458Z,17.9
2023-05-12T09:18:00.523Z,17.6
2023-05-12T09:19:00.483Z,17.7
2023-05-12T09:20:00.523Z,17.5
2023-05-12T09:21:00.501Z,17.5
2023-05-12T09:22:00.469Z,17.4
2023-05-12T09:23:00.478Z,17.4
2023-05-12T09:24:00.540Z,17.3
2023-05-12T09:25:00.474Z,17.3
2023-05-12T09:26:00.483Z,17.3
2023-05-12T09:27:00.532Z,17.4
2023-05-12T09:28:00.505Z,17.5
2023-05-12T09:29:00.482Z,17.7
2023-05-12T09:30:00.473Z,17.7
2023-05-12T09:31:00.465Z,17.7
2023-05-12T09:32:00.587Z,17.4
2023-05-12T09:33:00.511Z,17.4
2023-05-12T09:34:00.486Z,17.4
2023-05-12T09:35:00.462Z,17.5
2023-05-12T09:36:00.470Z,17.6
2023-05-12T09:37:00.486Z,17.7
2023-05-12T09:38:00.482Z,17.7
2023-05-12T09:39:00.577Z,17.6
2023-05-12T09:40:00.484Z,17.7
2023-05-12T09:41:00.473Z,17.8
2023-05-12T09:42:00.496Z,17.8
2023-05-12T09:43:00.479Z,18
2023-05-12T09:44:00.554Z,18.1
2023-05-12T09:45:00.465Z,18.1
2023-05-12T09:46:00.512Z,18.1
2023-05-12T09:47:00.481Z,18
2023-05-12T09:48:00.526Z,18
2023-05-12T09:49:00.491Z,18.1
2023-05-12T09:50:00.484Z,18.1
2023-05-12T09:51:00.507Z,18.4
2023-05-12T09:52:00.508Z,18.9
2023-05-12T09:53:00.503Z,19
2023-05-12T09:55:00.480Z,19.3
2023-05-12T09:56:00.471Z,19.4
2023-05-12T09:57:00.490Z,19.6
2023-05-12T09:58:00.480Z,19.5
2023-05-12T09:59:00.475Z,19.5
2023-05-12T10:00:00.472Z,19.6
2023-05-12T10:01:20.970Z,19.9
2023-05-12T10:02:00.602Z,20.1
2023-05-12T10:03:00.503Z,20.1
2023-05-12T10:04:00.463Z,20
2023-05-12T10:05:00.526Z,20
2023-05-12T10:07:00.484Z,20
2023-05-12T10:08:00.482Z,19.7
2023-05-12T10:09:00.563Z,19.5
2023-05-12T10:10:00.501Z,19.5
2023-05-12T10:11:00.507Z,19.3
2023-05-12T10:12:00.534Z,19.4
2023-05-12T10:13:00.543Z,19.5
2023-05-12T10:14:00.501Z,19.7
2023-05-12T10:15:00.506Z,20
2023-05-12T10:16:00.496Z,20
2023-05-12T10:17:00.582Z,20
2023-05-12T10:19:00.546Z,20.5
2023-05-12T10:20:00.505Z,20.4
2023-05-12T10:22:00.549Z,20
2023-05-12T10:23:00.481Z,19.8
2023-05-12T10:24:00.491Z,19.7
2023-05-12T10:25:00.471Z,19.9
2023-05-12T10:26:00.480Z,19.9
2023-05-12T10:27:00.484Z,19.8
2023-05-12T10:28:00.478Z,20
2023-05-12T10:29:00.493Z,19.8
2023-05-12T10:30:00.484Z,19.7
2023-05-12T10:31:00.538Z,19.7
2023-05-12T10:32:00.481Z,19.8
2023-05-12T10:33:00.515Z,19.8
2023-05-12T10:34:00.510Z,19.7
2023-05-12T10:35:01.587Z,19.5
2023-05-12T10:37:00.540Z,19.4
2023-05-12T10:38:00.787Z,19.3
2023-05-12T10:39:00.744Z,19.3
2023-05-12T10:40:00.589Z,19.3
2023-05-12T10:41:00.476Z,19.4
2023-05-12T10:43:00.483Z,19.4
2023-05-12T10:44:00.508Z,19.5
2023-05-12T10:45:00.483Z,19.7
2023-05-12T10:46:00.510Z,19.7
2023-05-12T10:47:00.478Z,19.5
2023-05-12T10:48:00.516Z,19.4
2023-05-12T10:49:00.502Z,19.3
2023-05-12T10:50:00.508Z,19.3
2023-05-12T10:51:00.488Z,19
2023-05-12T10:52:00.494Z,18.8
2023-05-12T10:53:00.482Z,18.7
2023-05-12T10:54:00.475Z,18.6
2023-05-12T10:55:00.531Z,18.6
2023-05-12T10:56:00.793Z,18.7
2023-05-12T10:57:00.745Z,18.6
2023-05-12T10:58:00.929Z,18.6
2023-05-12T10:59:00.662Z,18.6
2023-05-12T11:00:01.104Z,18.6
2023-05-12T11:01:01.040Z,18.6
2023-05-12T11:02:01.741Z,18.6
2023-05-12T11:03:04.342Z,18.5
2023-05-12T11:04:01.263Z,18.6
2023-05-12T11:05:00.664Z,18.6
2023-05-12T11:06:01.160Z,18.7
2023-05-12T11:07:01.332Z,18.6
2023-05-12T11:08:00.820Z,18.5
2023-05-12T11:09:00.926Z,18.4
2023-05-12T11:10:01.639Z,18.4
2023-05-12T11:11:00.515Z,18.5
2023-05-12T11:12:00.712Z,18.6
2023-05-12T11:13:00.495Z,18.5
2023-05-12T11:14:00.486Z,18.7
2023-05-12T11:15:00.486Z,18.7
2023-05-12T11:16:00.531Z,18.7
2023-05-12T11:17:00.551Z,18.6
2023-05-12T11:19:00.584Z,18.8
2023-05-12T11:20:00.514Z,18.9
2023-05-12T11:21:00.495Z,19
2023-05-12T11:22:00.540Z,19
2023-05-12T11:23:00.497Z,19.1
2023-05-12T11:24:00.562Z,19.1
2023-05-12T11:25:00.517Z,19.1
2023-05-12T11:26:00.535Z,19.2
2023-05-12T11:27:00.492Z,19.3
2023-05-12T11:28:00.498Z,19.5
2023-05-12T11:29:00.505Z,19.7
2023-05-12T11:30:00.512Z,19.6
2023-05-12T11:31:00.501Z,19.8
2023-05-12T11:32:00.746Z,20.1
2023-05-12T11:33:00.594Z,20.2
2023-05-12T11:34:10.827Z,20.2
2023-05-12T11:37:00.521Z,19.7
2023-05-12T11:38:00.534Z,19.7
2023-05-12T11:39:00.496Z,19.6
2023-05-12T11:40:00.527Z,19.7
2023-05-12T11:41:00.580Z,19.9
2023-05-12T11:42:11.669Z,19.9
2023-05-12T11:43:00.514Z,19.9
2023-05-12T11:44:00.503Z,20
2023-05-12T11:45:00.517Z,20.1
2023-05-12T11:46:00.545Z,20.3
2023-05-12T11:47:00.527Z,20.5
2023-05-12T11:48:00.591Z,20.6
2023-05-12T11:49:00.539Z,20.7
2023-05-12T11:50:00.518Z,20.7
2023-05-12T11:51:00.517Z,20.5
2023-05-12T11:52:00.499Z,20.4
2023-05-12T11:53:00.516Z,20.5
2023-05-12T11:54:00.509Z,20.6
2023-05-12T11:55:00.520Z,20.4
2023-05-12T11:56:00.514Z,20.2
2023-05-12T11:57:00.504Z,20.1
2023-05-12T11:58:00.560Z,20.2
2023-05-12T11:59:00.513Z,20.4
2023-05-12T12:00:00.843Z,20.5
2023-05-12T12:01:00.505Z,20.5
2023-05-12T12:02:00.537Z,20.5
2023-05-12T12:03:00.592Z,20.4
2023-05-12T12:04:00.583Z,20.5
2023-05-12T12:05:00.552Z,20.4
2023-05-12T12:07:00.503Z,20
2023-05-12T12:08:00.532Z,19.9
2023-05-12T12:09:00.503Z,20
2023-05-12T12:10:00.519Z,20.1
2023-05-12T12:11:02.936Z,20.1
2023-05-12T12:12:00.531Z,20.1
2023-05-12T12:13:00.529Z,20.1
2023-05-12T12:14:00.542Z,20.2
2023-05-12T12:15:00.564Z,20.2
2023-05-12T12:16:00.533Z,20.4
2023-05-12T12:17:00.533Z,20.4
2023-05-12T12:19:00.583Z,20.4
2023-05-12T12:20:00.567Z,20.4
2023-05-12T12:21:00.548Z,20.4
2023-05-12T12:22:00.550Z,20.5
2023-05-12T12:23:00.531Z,20.4
2023-05-12T12:24:00.546Z,20.3
2023-05-12T12:25:00.565Z,20.3
2023-05-12T12:26:00.538Z,20.4
2023-05-12T12:27:00.524Z,20.3
2023-05-12T12:28:00.529Z,20.4
2023-05-12T12:29:00.959Z,20.3
2023-05-12T12:31:00.562Z,20.4
2023-05-12T12:32:00.519Z,20.3
2023-05-12T12:33:00.591Z,20.2
2023-05-12T12:35:00.529Z,20.2
2023-05-12T12:37:00.547Z,20.3
2023-05-12T12:38:00.579Z,20.3
2023-05-12T12:39:00.529Z,20.2
2023-05-12T12:40:00.533Z,20.2
2023-05-12T12:41:00.542Z,20.2
2023-05-12T12:42:00.540Z,20.2
2023-05-12T12:43:00.558Z,20.3
2023-05-12T12:44:00.536Z,20.4
2023-05-12T12:45:00.530Z,20.4
2023-05-12T12:46:00.533Z,20.4
2023-05-12T12:47:00.613Z,20.4
2023-05-12T12:48:00.535Z,20.5
2023-05-12T12:49:00.547Z,20.4
2023-05-12T12:50:00.538Z,20.6
2023-05-12T12:51:00.528Z,20.6
2023-05-12T12:52:00.551Z,20.5
2023-05-12T12:53:00.529Z,20.6
2023-05-12T12:54:00.538Z,20.5
2023-05-12T12:55:00.533Z,20.6
2023-05-12T12:56:00.567Z,20.6
2023-05-12T12:57:00.548Z,20.5
2023-05-12T12:58:00.561Z,20.3
2023-05-12T12:59:00.549Z,20.4
2023-05-12T13:00:00.546Z,20.4
2023-05-12T13:01:00.581Z,20.5
2023-05-12T13:02:00.543Z,20.5
2023-05-12T13:03:00.784Z,20.5
2023-05-12T13:04:00.576Z,20.6
2023-05-12T13:05:00.529Z,20.7
2023-05-12T13:06:00.536Z,20.8
2023-05-12T13:07:00.555Z,20.9
2023-05-12T13:08:00.560Z,20.7
2023-05-12T13:09:00.522Z,20.8
2023-05-12T13:10:00.572Z,20.7
2023-05-12T13:11:00.524Z,20.7
2023-05-12T13:12:00.529Z,20.5
2023-05-12T13:13:00.555Z,20.3
2023-05-12T13:14:00.518Z,20.5
2023-05-12T13:15:00.658Z,20.4
2023-05-12T13:16:00.546Z,20.3
2023-05-12T13:17:00.589Z,20.2
2023-05-12T13:18:00.623Z,20.2
2023-05-12T13:19:00.631Z,20.2
2023-05-12T13:20:00.557Z,20.3
2023-05-12T13:21:00.603Z,20.2
2023-05-12T13:22:00.534Z,20.1
2023-05-12T13:23:00.555Z,20.1
2023-05-12T13:24:00.536Z,20
2023-05-12T13:25:00.669Z,20
2023-05-12T13:26:00.557Z,20.2
2023-05-12T13:27:00.587Z,20.3
2023-05-12T13:28:00.562Z,20.3
2023-05-12T13:29:00.553Z,20.3
2023-05-12T13:30:00.540Z,20.2
2023-05-12T13:31:00.580Z,20.2
2023-05-12T13:32:00.546Z,20.1
2023-05-12T13:33:00.795Z,20.1
2023-05-12T13:34:00.537Z,20.2
2023-05-12T13:35:00.550Z,20.2
2023-05-12T13:36:00.560Z,20
2023-05-12T13:37:00.546Z,20.1
2023-05-12T13:38:00.627Z,20.1
2023-05-12T13:39:00.539Z,20.2
2023-05-12T13:40:00.547Z,20.3
2023-05-12T13:41:00.535Z,20.3
2023-05-12T13:42:00.544Z,20.3
2023-05-12T13:43:00.595Z,20.4
2023-05-12T13:44:00.547Z,20.4
2023-05-12T13:45:00.547Z,20.3
2023-05-12T13:46:00.600Z,20.4
2023-05-12T13:47:00.557Z,20.5
2023-05-12T13:48:00.638Z,20.4
2023-05-12T13:49:00.535Z,20.4
2023-05-12T13:50:00.564Z,20.4
2023-05-12T13:51:00.540Z,20.5
2023-05-12T13:52:00.550Z,20.5
2023-05-12T13:53:00.555Z,20.4
2023-05-12T13:54:00.539Z,20.4
2023-05-12T13:55:00.578Z,20.2
2023-05-12T13:56:00.542Z,20.2
2023-05-12T13:57:00.543Z,20.3
2023-05-12T13:58:00.543Z,20.3
2023-05-12T13:59:00.557Z,20.3
2023-05-12T14:00:00.602Z,20.3
2023-05-12T14:01:00.542Z,20.3